Terminal Aerodrome Forecast
Issued by NWS Twin Cities, MN

Home | Current Version | Previous Version | Graphics & Text | Print | Product List | Glossary On
Versions: 1 2 3 4 5 6 7 8 9 10 11 12 13 14 15 16 17 18 19 20 21
474
FTUS43 KMPX 081042 AAA
TAFEAU
TAF AMD
KEAU 081042Z 0811/0906 30010G18KT 4SM -SN BLSN OVC020
     FM081700 32015G24KT P6SM OVC020
      TEMPO 0817/0821 6SM -SN BLSN=

USA.gov is the U.S. government's official web portal to all federal, state and local government web resources and services.